sensor_id;sensor_type;location;lat;lon;timestamp;pressure;altitude;pressure_sealevel;temperature;humidity
56604;BME280;42486;47.478;19.036;2023-06-14T00:01:57;99974.72;;;13.72;92.29
56604;BME280;42486;47.478;19.036;2023-06-14T00:05:01;99975.00;;;13.69;91.94
56604;BME280;42486;47.478;19.036;2023-06-14T00:08:07;99977.06;;;13.75;92.28
56604;BME280;42486;47.478;19.036;2023-06-14T00:11:12;99977.50;;;13.70;92.21
56604;BME280;42486;47.478;19.036;2023-06-14T00:14:16;99978.63;;;13.68;92.82
56604;BME280;42486;47.478;19.036;2023-06-14T00:17:20;99974.75;;;13.62;93.59
56604;BME280;42486;47.478;19.036;2023-06-14T00:20:30;99977.13;;;13.55;93.54
56604;BME280;42486;47.478;19.036;2023-06-14T00:23:35;99982.94;;;13.49;94.36
56604;BME280;42486;47.478;19.036;2023-06-14T00:26:42;99981.84;;;13.42;95.38
56604;BME280;42486;47.478;19.036;2023-06-14T00:29:46;99986.50;;;13.48;95.46
56604;BME280;42486;47.478;19.036;2023-06-14T00:32:51;99988.19;;;13.49;95.45
56604;BME280;42486;47.478;19.036;2023-06-14T00:35:54;99994.53;;;13.47;95.66
56604;BME280;42486;47.478;19.036;2023-06-14T00:38:58;99993.16;;;13.42;96.81
56604;BME280;42486;47.478;19.036;2023-06-14T00:42:01;99984.75;;;13.39;97.17
56604;BME280;42486;47.478;19.036;2023-06-14T00:45:06;99994.13;;;13.32;98.38
56604;BME280;42486;47.478;19.036;2023-06-14T00:48:11;99988.75;;;13.33;99.33
56604;BME280;42486;47.478;19.036;2023-06-14T00:51:13;99986.09;;;13.23;99.22
56604;BME280;42486;47.478;19.036;2023-06-14T00:54:18;99989.41;;;13.26;99.29
56604;BME280;42486;47.478;19.036;2023-06-14T00:57:27;99996.34;;;13.27;100.00
56604;BME280;42486;47.478;19.036;2023-06-14T01:00:33;99989.31;;;13.27;100.00
56604;BME280;42486;47.478;19.036;2023-06-14T01:03:36;99985.31;;;13.33;99.89
56604;BME280;42486;47.478;19.036;2023-06-14T01:16:14;99981.41;;;13.17;100.00
56604;BME280;42486;47.478;19.036;2023-06-14T01:19:19;99983.06;;;13.18;100.00
56604;BME280;42486;47.478;19.036;2023-06-14T01:22:28;99987.78;;;13.15;100.00
56604;BME280;42486;47.478;19.036;2023-06-14T01:25:34;99980.31;;;12.91;100.00
56604;BME280;42486;47.478;19.036;2023-06-14T01:28:38;99975.34;;;12.88;100.00
56604;BME280;42486;47.478;19.036;2023-06-14T01:31:43;99977.00;;;12.98;100.00
56604;BME280;42486;47.478;19.036;2023-06-14T01:34:49;99984.19;;;13.06;100.00
56604;BME280;42486;47.478;19.036;2023-06-14T01:37:52;99974.38;;;12.98;100.00
56604;BME280;42486;47.478;19.036;2023-06-14T01:41:01;99977.94;;;12.97;100.00
56604;BME280;42486;47.478;19.036;2023-06-14T01:44:09;99980.16;;;12.92;100.00
56604;BME280;42486;47.478;19.036;2023-06-14T01:47:14;99979.22;;;12.93;100.00
56604;BME280;42486;47.478;19.036;2023-06-14T01:50:21;99984.59;;;12.82;100.00
56604;BME280;42486;47.478;19.036;2023-06-14T01:53:25;99988.16;;;12.81;100.00
56604;BME280;42486;47.478;19.036;2023-06-14T01:56:34;99991.34;;;12.75;100.00
56604;BME280;42486;47.478;19.036;2023-06-14T01:59:38;99992.47;;;12.82;100.00
56604;BME280;42486;47.478;19.036;2023-06-14T02:02:44;99983.22;;;12.88;100.00
56604;BME280;42486;47.478;19.036;2023-06-14T02:05:49;99993.13;;;12.84;100.00
56604;BME280;42486;47.478;19.036;2023-06-14T02:08:53;99999.50;;;12.91;100.00
56604;BME280;42486;47.478;19.036;2023-06-14T02:11:58;99999.22;;;12.85;100.00
56604;BME280;42486;47.478;19.036;2023-06-14T02:15:04;99998.38;;;12.74;100.00
56604;BME280;42486;47.478;19.036;2023-06-14T02:18:11;99998.78;;;12.80;100.00
56604;BME280;42486;47.478;19.036;2023-06-14T02:21:30;100011.91;;;12.80;100.00
56604;BME280;42486;47.478;19.036;2023-06-14T02:24:34;99995.59;;;12.76;100.00
56604;BME280;42486;47.478;19.036;2023-06-14T02:27:38;100002.78;;;12.74;100.00
56604;BME280;42486;47.478;19.036;2023-06-14T02:30:41;100000.00;;;12.66;100.00
56604;BME280;42486;47.478;19.036;2023-06-14T02:33:45;100000.03;;;12.75;100.00
56604;BME280;42486;47.478;19.036;2023-06-14T02:36:50;99994.19;;;12.62;100.00
56604;BME280;42486;47.478;19.036;2023-06-14T02:39:57;99995.56;;;12.56;100.00
56604;BME280;42486;47.478;19.036;2023-06-14T02:43:05;99993.06;;;12.45;100.00
56604;BME280;42486;47.478;19.036;2023-06-14T02:46:09;99999.41;;;12.52;100.00
56604;BME280;42486;47.478;19.036;2023-06-14T02:49:18;99997.72;;;12.42;100.00
56604;BME280;42486;47.478;19.036;2023-06-14T02:52:24;99994.44;;;12.40;100.00
56604;BME280;42486;47.478;19.036;2023-06-14T02:55:31;99991.00;;;12.49;100.00
56604;BME280;42486;47.478;19.036;2023-06-14T02:58:41;99993.94;;;12.55;100.00
56604;BME280;42486;47.478;19.036;2023-06-14T03:01:48;99994.59;;;12.57;100.00
56604;BME280;42486;47.478;19.036;2023-06-14T03:04:52;99991.56;;;12.52;100.00
56604;BME280;42486;47.478;19.036;2023-06-14T03:07:56;99998.59;;;12.52;100.00
56604;BME280;42486;47.478;19.036;2023-06-14T03:11:03;99997.19;;;12.38;100.00
56604;BME280;42486;47.478;19.036;2023-06-14T03:14:09;99987.94;;;12.44;100.00
56604;BME280;42486;47.478;19.036;2023-06-14T03:17:20;99992.91;;;12.37;100.00
56604;BME280;42486;47.478;19.036;2023-06-14T03:20:29;99998.16;;;12.47;100.00
56604;BME280;42486;47.478;19.036;2023-06-14T03:23:38;99992.84;;;12.58;100.00
56604;BME280;42486;47.478;19.036;2023-06-14T03:26:45;99994.06;;;12.54;100.00
56604;BME280;42486;47.478;19.036;2023-06-14T03:29:53;99992.66;;;12.50;100.00
56604;BME280;42486;47.478;19.036;2023-06-14T03:32:59;99995.84;;;12.53;100.00
56604;BME280;42486;47.478;19.036;2023-06-14T03:36:17;99994.75;;;12.56;100.00
56604;BME280;42486;47.478;19.036;2023-06-14T03:39:35;99993.09;;;12.65;100.00
56604;BME280;42486;47.478;19.036;2023-06-14T03:42:40;100002.06;;;12.62;100.00
56604;BME280;42486;47.478;19.036;2023-06-14T03:45:49;99997.12;;;12.78;100.00
56604;BME280;42486;47.478;19.036;2023-06-14T03:48:55;100013.69;;;12.89;100.00
56604;BME280;42486;47.478;19.036;2023-06-14T03:52:01;100005.16;;;12.96;100.00
56604;BME280;42486;47.478;19.036;2023-06-14T03:55:08;100004.06;;;12.99;100.00
56604;BME280;42486;47.478;19.036;2023-06-14T03:58:14;100001.00;;;13.13;100.00
56604;BME280;42486;47.478;19.036;2023-06-14T04:01:19;100005.72;;;13.19;100.00
56604;BME280;42486;47.478;19.036;2023-06-14T04:04:39;100009.56;;;13.15;100.00
56604;BME280;42486;47.478;19.036;2023-06-14T04:07:47;100010.31;;;13.27;100.00
56604;BME280;42486;47.478;19.036;2023-06-14T04:10:54;100014.72;;;13.36;100.00
56604;BME280;42486;47.478;19.036;2023-06-14T04:13:58;100014.84;;;13.44;100.00
56604;BME280;42486;47.478;19.036;2023-06-14T04:17:02;100027.81;;;13.56;100.00
56604;BME280;42486;47.478;19.036;2023-06-14T04:20:07;100024.34;;;13.65;100.00
56604;BME280;42486;47.478;19.036;2023-06-14T04:23:15;100031.09;;;13.77;100.00
56604;BME280;42486;47.478;19.036;2023-06-14T04:26:21;100028.03;;;13.92;100.00
56604;BME280;42486;47.478;19.036;2023-06-14T04:29:28;100035.84;;;14.11;100.00
56604;BME280;42486;47.478;19.036;2023-06-14T04:32:32;100031.56;;;14.47;100.00
56604;BME280;42486;47.478;19.036;2023-06-14T04:35:44;100038.59;;;15.38;98.94
56604;BME280;42486;47.478;19.036;2023-06-14T04:38:52;100043.03;;;16.34;90.55
56604;BME280;42486;47.478;19.036;2023-06-14T04:42:02;100039.00;;;16.21;90.80
56604;BME280;42486;47.478;19.036;2023-06-14T04:45:06;100029.44;;;15.86;91.72
56604;BME280;42486;47.478;19.036;2023-06-14T04:48:11;100035.47;;;15.60;95.52
56604;BME280;42486;47.478;19.036;2023-06-14T04:51:16;100040.53;;;15.54;95.68
56604;BME280;42486;47.478;19.036;2023-06-14T04:54:23;100044.19;;;15.61;95.34
56604;BME280;42486;47.478;19.036;2023-06-14T04:57:30;100045.62;;;15.55;94.79
56604;BME280;42486;47.478;19.036;2023-06-14T05:00:36;100047.94;;;15.58;96.55
56604;BME280;42486;47.478;19.036;2023-06-14T05:03:41;100051.13;;;15.62;93.87
56604;BME280;42486;47.478;19.036;2023-06-14T05:06:49;100049.44;;;15.61;92.08
56604;BME280;42486;47.478;19.036;2023-06-14T05:09:53;100048.09;;;16.01;91.27
56604;BME280;42486;47.478;19.036;2023-06-14T05:12:56;100055.62;;;16.56;89.65
56604;BME280;42486;47.478;19.036;2023-06-14T05:15:59;100049.81;;;16.79;86.46
56604;BME280;42486;47.478;19.036;2023-06-14T06:35:05;100069.53;;;18.63;75.74
56604;BME280;42486;47.478;19.036;2023-06-14T06:38:11;100072.47;;;18.76;73.70
56604;BME280;42486;47.478;19.036;2023-06-14T06:41:15;100080.69;;;18.89;71.88
56604;BME280;42486;47.478;19.036;2023-06-14T06:44:21;100072.78;;;18.81;73.17
56604;BME280;42486;47.478;19.036;2023-06-14T06:47:25;100071.37;;;19.02;71.99
56604;BME280;42486;47.478;19.036;2023-06-14T06:50:31;100065.41;;;19.23;72.33
56604;BME280;42486;47.478;19.036;2023-06-14T06:53:35;100073.72;;;19.20;71.85
56604;BME280;42486;47.478;19.036;2023-06-14T06:56:45;100075.69;;;18.95;72.32
56604;BME280;42486;47.478;19.036;2023-06-14T06:59:51;100074.22;;;18.92;76.01
56604;BME280;42486;47.478;19.036;2023-06-14T07:02:53;100073.75;;;19.11;72.54
56604;BME280;42486;47.478;19.036;2023-06-14T07:05:57;100074.97;;;19.32;72.09
56604;BME280;42486;47.478;19.036;2023-06-14T07:09:01;100075.06;;;19.39;69.86
56604;BME280;42486;47.478;19.036;2023-06-14T07:12:06;100071.44;;;19.40;70.46
56604;BME280;42486;47.478;19.036;2023-06-14T07:15:09;100073.59;;;19.36;70.28
56604;BME280;42486;47.478;19.036;2023-06-14T07:18:18;100081.00;;;19.41;72.33
56604;BME280;42486;47.478;19.036;2023-06-14T07:21:20;100076.78;;;19.77;67.48
56604;BME280;42486;47.478;19.036;2023-06-14T07:24:24;100081.69;;;20.33;66.24
56604;BME280;42486;47.478;19.036;2023-06-14T07:27:36;100076.84;;;20.22;64.43
56604;BME280;42486;47.478;19.036;2023-06-14T07:30:50;100080.03;;;20.17;67.39
56604;BME280;42486;47.478;19.036;2023-06-14T07:34:02;100074.91;;;20.60;64.52
56604;BME280;42486;47.478;19.036;2023-06-14T07:37:08;100079.12;;;20.40;63.21
56604;BME280;42486;47.478;19.036;2023-06-14T07:40:38;100082.44;;;19.89;65.00
56604;BME280;42486;47.478;19.036;2023-06-14T07:43:41;100084.28;;;19.74;67.64
56604;BME280;42486;47.478;19.036;2023-06-14T07:46:46;100093.25;;;19.88;65.02
56604;BME280;42486;47.478;19.036;2023-06-14T07:50:13;100084.44;;;19.72;66.79
56604;BME280;42486;47.478;19.036;2023-06-14T07:53:21;100088.03;;;19.79;68.31
56604;BME280;42486;47.478;19.036;2023-06-14T07:56:33;100095.38;;;19.92;65.29
56604;BME280;42486;47.478;19.036;2023-06-14T07:59:39;100094.13;;;20.03;66.27
56604;BME280;42486;47.478;19.036;2023-06-14T08:02:50;100096.75;;;20.03;67.67
56604;BME280;42486;47.478;19.036;2023-06-14T08:06:16;100104.22;;;20.37;65.02
56604;BME280;42486;47.478;19.036;2023-06-14T08:09:24;100103.03;;;20.70;66.08
56604;BME280;42486;47.478;19.036;2023-06-14T08:12:27;100104.03;;;21.20;64.41
56604;BME280;42486;47.478;19.036;2023-06-14T08:15:40;100105.88;;;23.96;53.19
56604;BME280;42486;47.478;19.036;2023-06-14T08:18:44;100108.03;;;25.74;45.97
56604;BME280;42486;47.478;19.036;2023-06-14T08:25:20;100095.69;;;22.50;54.30
56604;BME280;42486;47.478;19.036;2023-06-14T08:28:26;100095.41;;;21.82;56.49
56604;BME280;42486;47.478;19.036;2023-06-14T08:31:29;100098.78;;;21.48;58.66
56604;BME280;42486;47.478;19.036;2023-06-14T08:34:34;100098.06;;;21.18;59.84
56604;BME280;42486;47.478;19.036;2023-06-14T08:37:40;100107.34;;;21.07;62.96
56604;BME280;42486;47.478;19.036;2023-06-14T08:40:45;100113.16;;;20.96;62.46
56604;BME280;42486;47.478;19.036;2023-06-14T08:43:52;100115.63;;;21.19;62.51
56604;BME280;42486;47.478;19.036;2023-06-14T08:46:59;100115.34;;;21.28;61.56
56604;BME280;42486;47.478;19.036;2023-06-14T08:50:01;100116.81;;;21.31;61.78
56604;BME280;42486;47.478;19.036;2023-06-14T08:53:24;100129.63;;;21.27;60.98
56604;BME280;42486;47.478;19.036;2023-06-14T08:56:29;100125.41;;;21.33;61.21
56604;BME280;42486;47.478;19.036;2023-06-14T08:59:32;100131.81;;;21.02;59.24
56604;BME280;42486;47.478;19.036;2023-06-14T09:02:42;100136.47;;;21.00;63.26
56604;BME280;42486;47.478;19.036;2023-06-14T09:05:51;100144.66;;;20.99;64.99
56604;BME280;42486;47.478;19.036;2023-06-14T09:08:59;100142.53;;;20.94;65.35
56604;BME280;42486;47.478;19.036;2023-06-14T09:12:05;100144.44;;;21.00;62.04
56604;BME280;42486;47.478;19.036;2023-06-14T09:15:10;100139.63;;;21.40;59.67
56604;BME280;42486;47.478;19.036;2023-06-14T09:18:18;100140.00;;;21.59;58.43
56604;BME280;42486;47.478;19.036;2023-06-14T09:21:24;100143.84;;;21.56;60.47
56604;BME280;42486;47.478;19.036;2023-06-14T09:24:32;100143.94;;;21.26;59.55
56604;BME280;42486;47.478;19.036;2023-06-14T09:27:39;100147.41;;;21.42;62.23
56604;BME280;42486;47.478;19.036;2023-06-14T09:30:45;100144.09;;;21.40;58.98
56604;BME280;42486;47.478;19.036;2023-06-14T09:33:50;100139.22;;;21.43;60.02
56604;BME280;42486;47.478;19.036;2023-06-14T09:36:55;100124.13;;;21.44;62.52
56604;BME280;42486;47.478;19.036;2023-06-14T09:40:02;100129.06;;;21.32;61.96
56604;BME280;42486;47.478;19.036;2023-06-14T09:43:09;100122.94;;;21.31;62.07
56604;BME280;42486;47.478;19.036;2023-06-14T09:46:13;100125.69;;;21.38;61.85
56604;BME280;42486;47.478;19.036;2023-06-14T09:49:23;100123.53;;;21.70;58.35
56604;BME280;42486;47.478;19.036;2023-06-14T09:52:29;100119.38;;;22.10;53.70
56604;BME280;42486;47.478;19.036;2023-06-14T09:55:37;100124.59;;;22.60;54.31
56604;BME280;42486;47.478;19.036;2023-06-14T09:58:41;100117.03;;;23.05;51.30
56604;BME280;42486;47.478;19.036;2023-06-14T10:01:58;100113.00;;;23.29;47.97
56604;BME280;42486;47.478;19.036;2023-06-14T10:05:11;100116.94;;;23.53;48.51
56604;BME280;42486;47.478;19.036;2023-06-14T10:08:22;100112.22;;;23.55;48.30
56604;BME280;42486;47.478;19.036;2023-06-14T10:11:30;100117.19;;;23.71;48.87
56604;BME280;42486;47.478;19.036;2023-06-14T10:14:33;100119.03;;;24.04;45.28
56604;BME280;42486;47.478;19.036;2023-06-14T10:17:42;100110.41;;;24.02;46.18
56604;BME280;42486;47.478;19.036;2023-06-14T10:20:50;100103.22;;;23.83;46.23
56604;BME280;42486;47.478;19.036;2023-06-14T10:23:59;100108.75;;;24.08;47.74
56604;BME280;42486;47.478;19.036;2023-06-14T10:27:08;100109.91;;;24.38;43.78
56604;BME280;42486;47.478;19.036;2023-06-14T10:30:14;100111.16;;;24.36;45.48
56604;BME280;42486;47.478;19.036;2023-06-14T10:33:23;100103.09;;;24.63;45.13
56604;BME280;42486;47.478;19.036;2023-06-14T10:36:31;100105.06;;;24.87;43.63
56604;BME280;42486;47.478;19.036;2023-06-14T10:39:41;100099.75;;;24.80;44.13
56604;BME280;42486;47.478;19.036;2023-06-14T10:42:51;100103.84;;;23.91;43.79
56604;BME280;42486;47.478;19.036;2023-06-14T10:52:56;100098.41;;;25.03;41.91
56604;BME280;42486;47.478;19.036;2023-06-14T10:56:05;100103.22;;;25.26;37.05
56604;BME280;42486;47.478;19.036;2023-06-14T10:59:12;100099.72;;;25.32;40.12
56604;BME280;42486;47.478;19.036;2023-06-14T11:05:55;100090.34;;;25.73;39.99
56604;BME280;42486;47.478;19.036;2023-06-14T11:12:11;100077.78;;;25.99;38.52
56604;BME280;42486;47.478;19.036;2023-06-14T11:15:18;100077.50;;;25.82;37.92
56604;BME280;42486;47.478;19.036;2023-06-14T11:18:32;100075.66;;;26.26;37.22
56604;BME280;42486;47.478;19.036;2023-06-14T11:21:39;100077.19;;;25.97;35.76
56604;BME280;42486;47.478;19.036;2023-06-14T11:24:43;100081.44;;;26.04;37.14
56604;BME280;42486;47.478;19.036;2023-06-14T11:27:48;100077.25;;;26.08;37.43
56604;BME280;42486;47.478;19.036;2023-06-14T11:31:04;100079.28;;;26.13;38.14
56604;BME280;42486;47.478;19.036;2023-06-14T11:34:20;100075.06;;;26.42;38.23
56604;BME280;42486;47.478;19.036;2023-06-14T11:37:23;100085.13;;;26.03;36.51
56604;BME280;42486;47.478;19.036;2023-06-14T11:44:10;100070.47;;;25.62;41.78
56604;BME280;42486;47.478;19.036;2023-06-14T11:47:15;100077.37;;;25.45;36.64
56604;BME280;42486;47.478;19.036;2023-06-14T11:50:19;100078.94;;;24.89;39.02
56604;BME280;42486;47.478;19.036;2023-06-14T11:53:25;100069.31;;;24.16;39.14
56604;BME280;42486;47.478;19.036;2023-06-14T11:56:29;100066.06;;;23.88;40.51
56604;BME280;42486;47.478;19.036;2023-06-14T11:59:40;100071.44;;;24.66;39.77
56604;BME280;42486;47.478;19.036;2023-06-14T12:02:43;100076.38;;;24.69;38.07
56604;BME280;42486;47.478;19.036;2023-06-14T12:06:02;100079.59;;;25.23;38.42
56604;BME280;42486;47.478;19.036;2023-06-14T12:09:05;100082.31;;;25.10;38.68
56604;BME280;42486;47.478;19.036;2023-06-14T12:12:20;100081.69;;;25.14;38.36
56604;BME280;42486;47.478;19.036;2023-06-14T12:15:24;100083.81;;;24.60;42.17
56604;BME280;42486;47.478;19.036;2023-06-14T12:18:34;100080.75;;;24.95;42.27
56604;BME280;42486;47.478;19.036;2023-06-14T12:21:41;100085.06;;;24.96;42.50
56604;BME280;42486;47.478;19.036;2023-06-14T12:24:45;100075.47;;;24.24;43.48
56604;BME280;42486;47.478;19.036;2023-06-14T12:27:49;100072.22;;;23.95;43.73
56604;BME280;42486;47.478;19.036;2023-06-14T12:30:53;100069.34;;;23.90;44.62
56604;BME280;42486;47.478;19.036;2023-06-14T12:33:57;100073.66;;;23.84;45.74
56604;BME280;42486;47.478;19.036;2023-06-14T12:37:01;100079.34;;;23.21;44.57
56604;BME280;42486;47.478;19.036;2023-06-14T12:40:05;100077.53;;;23.55;45.49
56604;BME280;42486;47.478;19.036;2023-06-14T12:43:14;100075.28;;;23.99;43.94
56604;BME280;42486;47.478;19.036;2023-06-14T12:46:21;100072.94;;;24.55;43.89
56604;BME280;42486;47.478;19.036;2023-06-14T12:49:24;100076.66;;;24.48;44.25
56604;BME280;42486;47.478;19.036;2023-06-14T12:52:27;100083.44;;;24.37;43.73
56604;BME280;42486;47.478;19.036;2023-06-14T12:55:29;100083.72;;;23.95;44.65
56604;BME280;42486;47.478;19.036;2023-06-14T12:58:33;100075.31;;;23.79;45.93
56604;BME280;42486;47.478;19.036;2023-06-14T13:01:38;100063.34;;;23.21;45.63
56604;BME280;42486;47.478;19.036;2023-06-14T13:04:42;100074.44;;;23.25;45.70
56604;BME280;42486;47.478;19.036;2023-06-14T13:07:45;100061.13;;;23.25;46.52
56604;BME280;42486;47.478;19.036;2023-06-14T13:10:48;100063.56;;;23.20;45.55
56604;BME280;42486;47.478;19.036;2023-06-14T13:13:51;100060.81;;;22.93;45.26
56604;BME280;42486;47.478;19.036;2023-06-14T13:16:54;100058.63;;;23.03;44.92
56604;BME280;42486;47.478;19.036;2023-06-14T13:19:58;100058.84;;;23.15;45.45
56604;BME280;42486;47.478;19.036;2023-06-14T13:23:01;100067.00;;;23.00;45.38
56604;BME280;42486;47.478;19.036;2023-06-14T13:26:08;100065.78;;;22.96;45.34
56604;BME280;42486;47.478;19.036;2023-06-14T13:29:12;100064.25;;;22.87;45.36
56604;BME280;42486;47.478;19.036;2023-06-14T13:32:15;100069.66;;;23.00;45.94
56604;BME280;42486;47.478;19.036;2023-06-14T13:35:18;100065.00;;;23.29;45.40
56604;BME280;42486;47.478;19.036;2023-06-14T13:38:20;100060.50;;;23.36;44.76
56604;BME280;42486;47.478;19.036;2023-06-14T13:41:23;100065.84;;;23.43;45.27
56604;BME280;42486;47.478;19.036;2023-06-14T13:44:27;100059.28;;;23.52;45.46
56604;BME280;42486;47.478;19.036;2023-06-14T13:47:30;100052.94;;;23.86;45.28
56604;BME280;42486;47.478;19.036;2023-06-14T13:50:33;100055.59;;;23.93;44.45
56604;BME280;42486;47.478;19.036;2023-06-14T13:53:47;100057.19;;;24.14;44.71
56604;BME280;42486;47.478;19.036;2023-06-14T13:56:50;100052.47;;;24.16;44.20
56604;BME280;42486;47.478;19.036;2023-06-14T13:59:55;100052.34;;;23.78;43.09
56604;BME280;42486;47.478;19.036;2023-06-14T14:03:04;100051.91;;;23.74;43.69
56604;BME280;42486;47.478;19.036;2023-06-14T14:06:08;100051.69;;;23.62;43.84
56604;BME280;42486;47.478;19.036;2023-06-14T14:09:14;100056.63;;;23.72;43.98
56604;BME280;42486;47.478;19.036;2023-06-14T14:12:19;100050.69;;;23.83;44.48
56604;BME280;42486;47.478;19.036;2023-06-14T14:15:23;100050.06;;;23.81;44.97
56604;BME280;42486;47.478;19.036;2023-06-14T14:18:27;100049.03;;;23.69;43.63
56604;BME280;42486;47.478;19.036;2023-06-14T14:21:33;100050.03;;;23.61;43.95
56604;BME280;42486;47.478;19.036;2023-06-14T14:24:35;100050.25;;;23.46;43.86
56604;BME280;42486;47.478;19.036;2023-06-14T14:27:42;100054.75;;;23.26;45.79
56604;BME280;42486;47.478;19.036;2023-06-14T14:30:46;100054.53;;;23.14;45.55
56604;BME280;42486;47.478;19.036;2023-06-14T14:33:50;100051.91;;;23.27;44.84
56604;BME280;42486;47.478;19.036;2023-06-14T14:36:54;100049.44;;;23.33;45.13
56604;BME280;42486;47.478;19.036;2023-06-14T14:39:57;100042.25;;;23.20;43.83
56604;BME280;42486;47.478;19.036;2023-06-14T14:43:00;100043.87;;;23.14;45.09
56604;BME280;42486;47.478;19.036;2023-06-14T14:46:03;100045.94;;;23.25;45.46
56604;BME280;42486;47.478;19.036;2023-06-14T14:49:06;100054.94;;;23.24;43.15
56604;BME280;42486;47.478;19.036;2023-06-14T14:52:09;100057.41;;;23.26;45.28
56604;BME280;42486;47.478;19.036;2023-06-14T14:55:24;100053.53;;;23.22;43.49
56604;BME280;42486;47.478;19.036;2023-06-14T14:58:28;100052.69;;;23.15;43.69
56604;BME280;42486;47.478;19.036;2023-06-14T15:01:31;100054.53;;;23.14;44.06
56604;BME280;42486;47.478;19.036;2023-06-14T15:04:36;100052.88;;;23.13;44.32
56604;BME280;42486;47.478;19.036;2023-06-14T15:07:38;100045.28;;;23.10;45.71
56604;BME280;42486;47.478;19.036;2023-06-14T15:10:41;100046.09;;;22.97;46.53
56604;BME280;42486;47.478;19.036;2023-06-14T15:13:46;100039.88;;;22.83;45.79
56604;BME280;42486;47.478;19.036;2023-06-14T15:16:49;100036.19;;;22.78;46.64
56604;BME280;42486;47.478;19.036;2023-06-14T15:19:52;100042.50;;;22.63;45.73
56604;BME280;42486;47.478;19.036;2023-06-14T15:22:56;100038.34;;;22.54;46.51
56604;BME280;42486;47.478;19.036;2023-06-14T15:26:01;100030.13;;;22.49;46.55
56604;BME280;42486;47.478;19.036;2023-06-14T15:29:04;100031.38;;;22.53;47.58
56604;BME280;42486;47.478;19.036;2023-06-14T15:32:08;100029.31;;;22.49;47.40
56604;BME280;42486;47.478;19.036;2023-06-14T15:35:16;100031.13;;;22.41;46.21
56604;BME280;42486;47.478;19.036;2023-06-14T15:38:21;100034.34;;;22.30;45.39
56604;BME280;42486;47.478;19.036;2023-06-14T15:41:27;100034.75;;;22.27;46.47
56604;BME280;42486;47.478;19.036;2023-06-14T15:44:29;100026.94;;;22.26;46.02
56604;BME280;42486;47.478;19.036;2023-06-14T15:47:32;100024.50;;;22.24;46.03
56604;BME280;42486;47.478;19.036;2023-06-14T15:50:36;100022.16;;;22.14;44.88
56604;BME280;42486;47.478;19.036;2023-06-14T15:53:39;100026.03;;;22.12;44.08
56604;BME280;42486;47.478;19.036;2023-06-14T15:56:42;100028.59;;;21.98;42.85
56604;BME280;42486;47.478;19.036;2023-06-14T15:59:44;100030.06;;;22.01;43.67
56604;BME280;42486;47.478;19.036;2023-06-14T16:02:47;100029.66;;;22.04;43.73
56604;BME280;42486;47.478;19.036;2023-06-14T16:05:52;100034.16;;;21.97;43.48
56604;BME280;42486;47.478;19.036;2023-06-14T16:08:56;100032.38;;;22.11;42.57
56604;BME280;42486;47.478;19.036;2023-06-14T16:11:59;100036.91;;;22.17;43.47
56604;BME280;42486;47.478;19.036;2023-06-14T16:15:04;100042.00;;;22.12;43.48
56604;BME280;42486;47.478;19.036;2023-06-14T16:18:07;100035.81;;;22.05;42.61
56604;BME280;42486;47.478;19.036;2023-06-14T16:21:10;100050.44;;;21.87;42.03
56604;BME280;42486;47.478;19.036;2023-06-14T16:24:13;100035.28;;;21.88;42.25
56604;BME280;42486;47.478;19.036;2023-06-14T16:27:17;100046.25;;;21.78;42.32
56604;BME280;42486;47.478;19.036;2023-06-14T16:30:20;100046.91;;;21.80;41.99
56604;BME280;42486;47.478;19.036;2023-06-14T16:33:23;100043.66;;;21.85;43.02
56604;BME280;42486;47.478;19.036;2023-06-14T16:36:26;100050.91;;;21.69;43.12
56604;BME280;42486;47.478;19.036;2023-06-14T16:39:30;100048.25;;;21.69;42.60
56604;BME280;42486;47.478;19.036;2023-06-14T16:42:34;100046.22;;;21.71;43.41
56604;BME280;42486;47.478;19.036;2023-06-14T16:45:36;100051.59;;;21.78;43.50
56604;BME280;42486;47.478;19.036;2023-06-14T16:48:39;100046.81;;;21.67;43.50
56604;BME280;42486;47.478;19.036;2023-06-14T16:51:42;100055.22;;;21.70;44.11
56604;BME280;42486;47.478;19.036;2023-06-14T16:54:47;100059.91;;;21.68;44.24
56604;BME280;42486;47.478;19.036;2023-06-14T16:57:50;100053.56;;;21.69;44.80
56604;BME280;42486;47.478;19.036;2023-06-14T17:00:56;100062.91;;;21.87;44.92
56604;BME280;42486;47.478;19.036;2023-06-14T17:03:59;100061.88;;;21.81;43.99
56604;BME280;42486;47.478;19.036;2023-06-14T17:07:03;100068.91;;;21.95;45.78
56604;BME280;42486;47.478;19.036;2023-06-14T17:10:10;100067.84;;;21.90;44.84
56604;BME280;42486;47.478;19.036;2023-06-14T17:13:13;100071.25;;;21.55;45.45
56604;BME280;42486;47.478;19.036;2023-06-14T17:16:18;100070.31;;;21.42;45.58
56604;BME280;42486;47.478;19.036;2023-06-14T17:19:23;100067.50;;;21.28;46.60
56604;BME280;42486;47.478;19.036;2023-06-14T17:22:27;100070.22;;;21.14;46.87
56604;BME280;42486;47.478;19.036;2023-06-14T17:25:30;100075.66;;;21.05;47.11
56604;BME280;42486;47.478;19.036;2023-06-14T17:28:34;100080.91;;;20.99;48.96
56604;BME280;42486;47.478;19.036;2023-06-14T17:31:38;100086.06;;;20.85;49.30
56604;BME280;42486;47.478;19.036;2023-06-14T17:34:41;100089.66;;;20.78;49.38
56604;BME280;42486;47.478;19.036;2023-06-14T17:37:46;100093.41;;;20.68;48.83
56604;BME280;42486;47.478;19.036;2023-06-14T17:40:52;100091.66;;;20.61;50.37
56604;BME280;42486;47.478;19.036;2023-06-14T17:43:56;100092.69;;;20.60;49.95
56604;BME280;42486;47.478;19.036;2023-06-14T17:47:00;100100.72;;;20.52;51.89